ETX8614 KDNA-KSAN
Flight info
| Callsign | ETX8614 |
|---|---|
| Flight time | 1h 29m |
| Altitude | 43000 |
| Route | SSO BXK DECAS MOMAR LUCKI1 |
| Aircraft | C750/M-SDGHIM3RWXY/S |
Departure
| Time | 2026-05-05 18:39 |
|---|---|
| Airport | Doña Ana County International Jetport (KDNA) |
Arrival
| Time | 2026-05-05 20:09 |
|---|---|
| Airport | San Diego International Airport (KSAN) |
| Time | Latitude | Longitude | Altitude | Speed | Heading |
|---|---|---|---|---|---|
| 2026-05-05 18:16 | 31.87692 | -106.70187 | 4118 ft | 0 kts | 205° |
| 2026-05-05 18:35 | 31.87688 | -106.70185 | 4110 ft | 1 kts | 154° |
| 2026-05-05 18:35 | 31.87691 | -106.70168 | 4117 ft | 5 kts | 74° |
| 2026-05-05 18:35 | 31.87721 | -106.70099 | 4118 ft | 14 kts | 45° |
| 2026-05-05 18:36 | 31.87804 | -106.70031 | 4118 ft | 13 kts | 64° |
| 2026-05-05 18:36 | 31.87772 | -106.69908 | 4119 ft | 21 kts | 112° |
| 2026-05-05 18:36 | 31.87703 | -106.69707 | 4118 ft | 32 kts | 110° |
| 2026-05-05 18:36 | 31.87615 | -106.69446 | 4115 ft | 37 kts | 111° |
| 2026-05-05 18:37 | 31.87514 | -106.69150 | 4118 ft | 37 kts | 112° |
| 2026-05-05 18:37 | 31.87464 | -106.69007 | 4117 ft | 12 kts | 111° |
| 2026-05-05 18:37 | 31.87482 | -106.68947 | 4119 ft | 0 kts | 36° |
| 2026-05-05 18:38 | 31.87484 | -106.68945 | 4119 ft | 4 kts | 34° |
| 2026-05-05 18:38 | 31.87549 | -106.68916 | 4118 ft | 12 kts | 351° |
| 2026-05-05 18:38 | 31.87574 | -106.68944 | 4115 ft | 0 kts | 294° |
| 2026-05-05 18:39 | 31.87675 | -106.69244 | 4120 ft | 94 kts | 291° |
| 2026-05-05 18:39 | 31.88008 | -106.70218 | 4230 ft | 146 kts | 288° |
| 2026-05-05 18:39 | 31.88412 | -106.71300 | 5138 ft | 143 kts | 293° |
| 2026-05-05 18:40 | 31.88754 | -106.72460 | 5595 ft | 166 kts | 268° |
| 2026-05-05 18:40 | 31.88568 | -106.73917 | 6087 ft | 194 kts | 262° |
| 2026-05-05 18:40 | 31.88618 | -106.75614 | 6608 ft | 222 kts | 275° |
| 2026-05-05 18:40 | 31.88936 | -106.77500 | 7150 ft | 248 kts | 280° |
| 2026-05-05 18:41 | 31.89310 | -106.79546 | 8000 ft | 258 kts | 279° |
| 2026-05-05 18:41 | 31.89644 | -106.81608 | 9250 ft | 259 kts | 277° |
| 2026-05-05 18:41 | 31.89979 | -106.83756 | 9958 ft | 277 kts | 277° |
| 2026-05-05 18:41 | 31.90357 | -106.86128 | 9987 ft | 312 kts | 278° |
| 2026-05-05 18:42 | 31.90789 | -106.88763 | 9865 ft | 341 kts | 278° |
| 2026-05-05 18:42 | 31.91237 | -106.91464 | 11039 ft | 324 kts | 278° |
| 2026-05-05 18:42 | 31.91648 | -106.93987 | 12171 ft | 318 kts | 277° |
| 2026-05-05 18:42 | 31.92056 | -106.96567 | 12934 ft | 322 kts | 276° |
| 2026-05-05 18:43 | 31.92472 | -106.99160 | 13700 ft | 324 kts | 276° |
| 2026-05-05 18:43 | 31.92897 | -107.01777 | 14397 ft | 326 kts | 276° |
| 2026-05-05 18:43 | 31.93321 | -107.04404 | 15093 ft | 328 kts | 276° |
| 2026-05-05 18:43 | 31.93744 | -107.07050 | 15783 ft | 330 kts | 275° |
| 2026-05-05 18:44 | 31.94172 | -107.09721 | 16446 ft | 334 kts | 275° |
| 2026-05-05 18:44 | 31.94605 | -107.12421 | 17136 ft | 338 kts | 275° |
| 2026-05-05 18:44 | 31.95041 | -107.15145 | 17887 ft | 340 kts | 275° |
| 2026-05-05 18:44 | 31.95481 | -107.17902 | 18555 ft | 344 kts | 275° |
| 2026-05-05 18:45 | 31.95923 | -107.20672 | 19296 ft | 344 kts | 274° |
| 2026-05-05 18:45 | 31.96366 | -107.23449 | 20022 ft | 347 kts | 274° |
| 2026-05-05 18:45 | 31.96810 | -107.26249 | 20776 ft | 349 kts | 274° |
| 2026-05-05 18:45 | 31.97257 | -107.29062 | 21538 ft | 351 kts | 273° |
| 2026-05-05 18:46 | 31.97706 | -107.31895 | 22279 ft | 353 kts | 272° |
| 2026-05-05 18:46 | 31.98157 | -107.34741 | 23032 ft | 355 kts | 272° |
| 2026-05-05 18:46 | 31.98610 | -107.37607 | 23737 ft | 357 kts | 272° |
| 2026-05-05 18:46 | 31.99065 | -107.40493 | 24357 ft | 360 kts | 272° |
| 2026-05-05 18:47 | 31.99522 | -107.43395 | 24980 ft | 361 kts | 272° |
| 2026-05-05 18:47 | 31.99981 | -107.46318 | 25544 ft | 365 kts | 272° |
| 2026-05-05 18:47 | 32.00444 | -107.49271 | 26101 ft | 368 kts | 272° |
| 2026-05-05 18:47 | 32.00912 | -107.52248 | 26666 ft | 372 kts | 272° |
| 2026-05-05 18:48 | 32.01383 | -107.55257 | 27220 ft | 375 kts | 272° |
| 2026-05-05 18:48 | 32.01858 | -107.58293 | 27793 ft | 378 kts | 272° |
| 2026-05-05 18:48 | 32.02336 | -107.61357 | 28348 ft | 382 kts | 272° |
| 2026-05-05 18:48 | 32.02819 | -107.64454 | 28904 ft | 386 kts | 272° |
| 2026-05-05 18:49 | 32.03305 | -107.67580 | 29440 ft | 390 kts | 272° |
| 2026-05-05 18:49 | 32.03795 | -107.70735 | 29956 ft | 393 kts | 272° |
| 2026-05-05 18:49 | 32.04289 | -107.73922 | 30376 ft | 397 kts | 272° |
| 2026-05-05 18:49 | 32.04787 | -107.77130 | 30816 ft | 399 kts | 272° |
| 2026-05-05 18:50 | 32.05284 | -107.80342 | 31394 ft | 397 kts | 271° |
| 2026-05-05 18:50 | 32.05779 | -107.83525 | 31970 ft | 393 kts | 271° |
| 2026-05-05 18:50 | 32.06264 | -107.86683 | 32621 ft | 390 kts | 271° |
| 2026-05-05 18:50 | 32.06743 | -107.89815 | 33287 ft | 387 kts | 270° |
| 2026-05-05 18:51 | 32.07221 | -107.92924 | 33961 ft | 384 kts | 270° |
| 2026-05-05 18:51 | 32.07695 | -107.96015 | 34580 ft | 381 kts | 270° |
| 2026-05-05 18:51 | 32.08163 | -107.99065 | 35244 ft | 376 kts | 270° |
| 2026-05-05 18:51 | 32.08623 | -108.02082 | 35893 ft | 371 kts | 270° |
| 2026-05-05 18:52 | 32.09070 | -108.05021 | 36518 ft | 367 kts | 270° |
| 2026-05-05 18:52 | 32.09517 | -108.07959 | 37131 ft | 363 kts | 269° |
| 2026-05-05 18:52 | 32.09959 | -108.10865 | 37720 ft | 358 kts | 269° |
| 2026-05-05 18:52 | 32.10397 | -108.13753 | 38282 ft | 355 kts | 269° |
| 2026-05-05 18:53 | 32.10828 | -108.16603 | 38774 ft | 352 kts | 269° |
| 2026-05-05 18:53 | 32.11256 | -108.19444 | 39156 ft | 352 kts | 269° |
| 2026-05-05 18:53 | 32.11683 | -108.22292 | 39559 ft | 353 kts | 270° |
| 2026-05-05 18:53 | 32.12115 | -108.25149 | 39980 ft | 354 kts | 270° |
| 2026-05-05 18:54 | 32.12547 | -108.28013 | 40399 ft | 355 kts | 270° |
| 2026-05-05 18:54 | 32.12979 | -108.30889 | 40813 ft | 357 kts | 270° |
| 2026-05-05 18:54 | 32.13411 | -108.33771 | 41232 ft | 357 kts | 270° |
| 2026-05-05 18:54 | 32.13844 | -108.36665 | 41659 ft | 359 kts | 270° |
| 2026-05-05 18:55 | 32.14278 | -108.39567 | 42069 ft | 360 kts | 271° |
| 2026-05-05 18:55 | 32.14713 | -108.42475 | 42494 ft | 360 kts | 271° |
| 2026-05-05 18:55 | 32.15148 | -108.45395 | 42916 ft | 362 kts | 271° |
| 2026-05-05 18:55 | 32.15584 | -108.48354 | 42945 ft | 371 kts | 271° |
| 2026-05-05 18:56 | 32.16494 | -108.54491 | 42979 ft | 388 kts | 271° |
| 2026-05-05 18:56 | 32.17444 | -108.60905 | 42998 ft | 405 kts | 271° |
| 2026-05-05 18:57 | 32.18423 | -108.67526 | 43018 ft | 411 kts | 272° |
| 2026-05-05 18:57 | 32.19402 | -108.74184 | 43017 ft | 413 kts | 271° |
| 2026-05-05 18:58 | 32.19888 | -108.77519 | 42863 ft | 412 kts | 271° |
| 2026-05-05 18:58 | 32.20377 | -108.80865 | 42867 ft | 415 kts | 271° |
| 2026-05-05 18:58 | 32.21356 | -108.87569 | 42865 ft | 414 kts | 271° |
| 2026-05-05 18:59 | 32.22321 | -108.94229 | 42865 ft | 414 kts | 271° |
| 2026-05-05 18:59 | 32.23295 | -109.00982 | 42864 ft | 419 kts | 271° |
| 2026-05-05 19:00 | 32.24277 | -109.07769 | 42865 ft | 419 kts | 271° |
| 2026-05-05 19:00 | 32.25247 | -109.14558 | 42870 ft | 422 kts | 271° |
| 2026-05-05 19:01 | 32.26224 | -109.21379 | 42872 ft | 421 kts | 272° |
| 2026-05-05 19:01 | 32.27622 | -109.28154 | 42861 ft | 431 kts | 280° |
| 2026-05-05 19:02 | 32.29908 | -109.34778 | 42869 ft | 436 kts | 283° |
| 2026-05-05 19:02 | 32.32209 | -109.41404 | 42886 ft | 436 kts | 283° |
| 2026-05-05 19:03 | 32.34532 | -109.48031 | 42873 ft | 437 kts | 283° |
| 2026-05-05 19:03 | 32.36839 | -109.54658 | 42878 ft | 436 kts | 283° |
| 2026-05-05 19:04 | 32.39146 | -109.61290 | 42906 ft | 437 kts | 283° |
| 2026-05-05 19:04 | 32.41465 | -109.67968 | 42887 ft | 439 kts | 283° |
| 2026-05-05 19:05 | 32.43781 | -109.74655 | 42873 ft | 439 kts | 283° |
| 2026-05-05 19:05 | 32.46093 | -109.81342 | 42897 ft | 440 kts | 283° |
| 2026-05-05 19:06 | 32.48411 | -109.88057 | 42890 ft | 440 kts | 283° |
| 2026-05-05 19:06 | 32.50707 | -109.94728 | 42901 ft | 440 kts | 283° |
| 2026-05-05 19:07 | 32.53016 | -110.01448 | 42900 ft | 440 kts | 283° |
| 2026-05-05 19:07 | 32.55321 | -110.08171 | 42904 ft | 440 kts | 282° |
| 2026-05-05 19:08 | 32.57629 | -110.14919 | 42906 ft | 443 kts | 283° |
| 2026-05-05 19:08 | 32.59956 | -110.21729 | 42908 ft | 448 kts | 283° |
| 2026-05-05 19:09 | 32.62285 | -110.28561 | 42908 ft | 446 kts | 283° |
| 2026-05-05 19:09 | 32.64609 | -110.35400 | 42915 ft | 447 kts | 283° |
| 2026-05-05 19:10 | 32.66933 | -110.42243 | 42905 ft | 447 kts | 283° |
| 2026-05-05 19:10 | 32.69253 | -110.49098 | 42900 ft | 448 kts | 283° |
| 2026-05-05 19:11 | 32.71584 | -110.55998 | 42900 ft | 450 kts | 284° |
| 2026-05-05 19:11 | 32.73914 | -110.62910 | 42908 ft | 454 kts | 284° |
| 2026-05-05 19:12 | 32.76241 | -110.69824 | 42910 ft | 454 kts | 284° |
| 2026-05-05 19:12 | 32.78591 | -110.76824 | 42920 ft | 453 kts | 284° |
| 2026-05-05 19:13 | 32.80922 | -110.83785 | 42918 ft | 453 kts | 284° |
| 2026-05-05 19:13 | 32.83250 | -110.90743 | 42918 ft | 453 kts | 284° |
| 2026-05-05 19:14 | 32.85179 | -110.96531 | 42919 ft | 453 kts | 284° |
| 2026-05-05 19:14 | 32.87499 | -111.03498 | 42922 ft | 453 kts | 284° |
| 2026-05-05 19:15 | 32.90191 | -111.11603 | 42923 ft | 455 kts | 284° |
| 2026-05-05 19:15 | 32.92521 | -111.18638 | 42916 ft | 457 kts | 284° |
| 2026-05-05 19:16 | 32.94456 | -111.24481 | 42916 ft | 456 kts | 284° |
| 2026-05-05 19:16 | 32.96772 | -111.31509 | 42911 ft | 456 kts | 284° |
| 2026-05-05 19:17 | 32.99092 | -111.38551 | 42912 ft | 457 kts | 284° |
| 2026-05-05 19:17 | 33.01407 | -111.45600 | 42913 ft | 457 kts | 284° |
| 2026-05-05 19:18 | 33.03717 | -111.52645 | 42908 ft | 456 kts | 284° |
| 2026-05-05 19:18 | 33.06025 | -111.59702 | 42962 ft | 457 kts | 284° |
| 2026-05-05 19:19 | 33.08339 | -111.66797 | 42929 ft | 459 kts | 284° |
| 2026-05-05 19:19 | 33.10651 | -111.73894 | 42936 ft | 459 kts | 284° |
| 2026-05-05 19:20 | 33.12959 | -111.81002 | 42950 ft | 460 kts | 284° |
| 2026-05-05 19:20 | 33.15269 | -111.88124 | 42953 ft | 460 kts | 284° |
| 2026-05-05 19:21 | 33.17567 | -111.95233 | 42939 ft | 459 kts | 284° |
| 2026-05-05 19:21 | 33.19845 | -112.02294 | 42934 ft | 459 kts | 284° |
| 2026-05-05 19:22 | 33.22136 | -112.09409 | 42936 ft | 460 kts | 284° |
| 2026-05-05 19:22 | 33.24439 | -112.16587 | 42918 ft | 463 kts | 284° |
| 2026-05-05 19:23 | 33.26746 | -112.23779 | 42939 ft | 464 kts | 284° |
| 2026-05-05 19:23 | 33.29058 | -112.31019 | 42946 ft | 466 kts | 284° |
| 2026-05-05 19:24 | 33.31361 | -112.38227 | 42938 ft | 462 kts | 284° |
| 2026-05-05 19:24 | 33.33642 | -112.45411 | 42941 ft | 463 kts | 284° |
| 2026-05-05 19:25 | 33.35928 | -112.52602 | 42955 ft | 462 kts | 284° |
| 2026-05-05 19:25 | 33.38207 | -112.59808 | 42961 ft | 467 kts | 284° |
| 2026-05-05 19:26 | 33.40507 | -112.67080 | 42968 ft | 467 kts | 284° |
| 2026-05-05 19:26 | 33.42799 | -112.74356 | 42969 ft | 467 kts | 284° |
| 2026-05-05 19:27 | 33.45043 | -112.81656 | 42952 ft | 465 kts | 281° |
| 2026-05-05 19:27 | 33.46353 | -112.89158 | 42935 ft | 459 kts | 275° |
| 2026-05-05 19:28 | 33.47503 | -112.96693 | 42933 ft | 460 kts | 275° |
| 2026-05-05 19:28 | 33.48623 | -113.04177 | 42917 ft | 460 kts | 275° |
| 2026-05-05 19:29 | 33.49754 | -113.11720 | 42916 ft | 460 kts | 275° |
| 2026-05-05 19:29 | 33.50882 | -113.19302 | 42893 ft | 465 kts | 275° |
| 2026-05-05 19:30 | 33.52015 | -113.26924 | 42896 ft | 464 kts | 275° |
| 2026-05-05 19:30 | 33.53139 | -113.34539 | 42896 ft | 464 kts | 275° |
| 2026-05-05 19:31 | 33.54260 | -113.42161 | 42900 ft | 464 kts | 275° |
| 2026-05-05 19:31 | 33.55378 | -113.49802 | 43005 ft | 466 kts | 275° |
| 2026-05-05 19:32 | 33.56494 | -113.57453 | 43003 ft | 466 kts | 275° |
| 2026-05-05 19:32 | 33.57604 | -113.65103 | 43003 ft | 466 kts | 275° |
| 2026-05-05 19:33 | 33.58710 | -113.72760 | 42994 ft | 466 kts | 275° |
| 2026-05-05 19:33 | 33.59812 | -113.80427 | 42965 ft | 467 kts | 275° |
| 2026-05-05 19:34 | 33.60912 | -113.88104 | 42944 ft | 467 kts | 275° |
| 2026-05-05 19:35 | 33.62551 | -113.99618 | 42915 ft | 467 kts | 275° |
| 2026-05-05 19:35 | 33.63629 | -114.07235 | 42918 ft | 467 kts | 275° |
| 2026-05-05 19:36 | 33.64716 | -114.14957 | 42913 ft | 469 kts | 275° |
| 2026-05-05 19:36 | 33.65798 | -114.22667 | 42910 ft | 468 kts | 275° |
| 2026-05-05 19:37 | 33.66873 | -114.30377 | 42907 ft | 468 kts | 275° |
| 2026-05-05 19:37 | 33.67945 | -114.38089 | 42921 ft | 468 kts | 275° |
| 2026-05-05 19:38 | 33.69011 | -114.45806 | 42933 ft | 469 kts | 275° |
| 2026-05-05 19:38 | 33.70075 | -114.53536 | 42948 ft | 469 kts | 275° |
| 2026-05-05 19:39 | 33.71138 | -114.61303 | 42935 ft | 471 kts | 276° |
| 2026-05-05 19:39 | 33.72198 | -114.69074 | 42950 ft | 472 kts | 275° |
| 2026-05-05 19:40 | 33.73251 | -114.76846 | 42942 ft | 471 kts | 275° |
| 2026-05-05 19:40 | 33.74302 | -114.84625 | 42934 ft | 471 kts | 275° |
| 2026-05-05 19:41 | 33.75346 | -114.92407 | 42921 ft | 471 kts | 275° |
| 2026-05-05 19:41 | 33.76385 | -115.00175 | 42806 ft | 465 kts | 275° |
| 2026-05-05 19:41 | 33.76891 | -115.03953 | 42177 ft | 451 kts | 275° |
| 2026-05-05 19:42 | 33.77379 | -115.07620 | 41602 ft | 438 kts | 275° |
| 2026-05-05 19:42 | 33.77850 | -115.11185 | 41034 ft | 425 kts | 275° |
| 2026-05-05 19:42 | 33.78306 | -115.14647 | 40486 ft | 416 kts | 275° |
| 2026-05-05 19:42 | 33.78756 | -115.18060 | 39953 ft | 412 kts | 274° |
| 2026-05-05 19:43 | 33.79203 | -115.21468 | 39412 ft | 414 kts | 274° |
| 2026-05-05 19:43 | 33.79646 | -115.24851 | 38894 ft | 417 kts | 274° |
| 2026-05-05 19:43 | 33.80106 | -115.28366 | 38269 ft | 423 kts | 274° |
| 2026-05-05 19:43 | 33.80564 | -115.31853 | 37714 ft | 422 kts | 274° |
| 2026-05-05 19:44 | 33.81021 | -115.35345 | 37156 ft | 423 kts | 275° |
| 2026-05-05 19:44 | 33.81470 | -115.38843 | 36587 ft | 423 kts | 274° |
| 2026-05-05 19:44 | 33.81561 | -115.42299 | 36033 ft | 417 kts | 263° |
| 2026-05-05 19:44 | 33.81071 | -115.45704 | 35493 ft | 413 kts | 253° |
| 2026-05-05 19:45 | 33.80037 | -115.48908 | 34951 ft | 411 kts | 243° |
| 2026-05-05 19:45 | 33.78509 | -115.51800 | 34419 ft | 410 kts | 234° |
| 2026-05-05 19:45 | 33.76782 | -115.54525 | 33886 ft | 409 kts | 234° |
| 2026-05-05 19:45 | 33.75061 | -115.57248 | 33311 ft | 410 kts | 234° |
| 2026-05-05 19:46 | 33.73339 | -115.59993 | 32764 ft | 413 kts | 234° |
| 2026-05-05 19:46 | 33.71604 | -115.62747 | 32216 ft | 415 kts | 233° |
| 2026-05-05 19:46 | 33.69854 | -115.65512 | 31663 ft | 413 kts | 233° |
| 2026-05-05 19:46 | 33.68118 | -115.68255 | 31122 ft | 413 kts | 234° |
| 2026-05-05 19:47 | 33.66375 | -115.71014 | 30578 ft | 418 kts | 233° |
| 2026-05-05 19:47 | 33.64620 | -115.73791 | 30024 ft | 415 kts | 233° |
| 2026-05-05 19:47 | 33.62881 | -115.76534 | 29437 ft | 412 kts | 233° |
| 2026-05-05 19:47 | 33.61147 | -115.79267 | 28896 ft | 411 kts | 233° |
| 2026-05-05 19:48 | 33.59421 | -115.81990 | 28355 ft | 410 kts | 233° |
| 2026-05-05 19:48 | 33.57693 | -115.84712 | 27818 ft | 409 kts | 233° |
| 2026-05-05 19:48 | 33.55972 | -115.87422 | 27280 ft | 408 kts | 233° |
| 2026-05-05 19:48 | 33.54252 | -115.90127 | 26742 ft | 407 kts | 233° |
| 2026-05-05 19:49 | 33.52535 | -115.92826 | 26207 ft | 407 kts | 233° |
| 2026-05-05 19:49 | 33.51384 | -115.94653 | 25834 ft | 406 kts | 235° |
| 2026-05-05 19:49 | 33.49265 | -115.98359 | 25190 ft | 408 kts | 236° |
| 2026-05-05 19:49 | 33.47635 | -116.01136 | 24693 ft | 407 kts | 236° |
| 2026-05-05 19:50 | 33.46007 | -116.03911 | 24197 ft | 407 kts | 236° |
| 2026-05-05 19:50 | 33.44398 | -116.06697 | 23698 ft | 406 kts | 236° |
| 2026-05-05 19:50 | 33.42792 | -116.09482 | 23154 ft | 405 kts | 236° |
| 2026-05-05 19:50 | 33.41186 | -116.12239 | 22654 ft | 402 kts | 236° |
| 2026-05-05 19:51 | 33.39591 | -116.14969 | 22163 ft | 399 kts | 236° |
| 2026-05-05 19:51 | 33.38010 | -116.17687 | 21670 ft | 396 kts | 236° |
| 2026-05-05 19:51 | 33.36441 | -116.20385 | 21188 ft | 394 kts | 236° |
| 2026-05-05 19:51 | 33.34869 | -116.23059 | 20705 ft | 391 kts | 235° |
| 2026-05-05 19:52 | 33.32931 | -116.25327 | 20198 ft | 392 kts | 217° |
| 2026-05-05 19:52 | 33.30567 | -116.26905 | 19764 ft | 385 kts | 210° |
| 2026-05-05 19:52 | 33.28151 | -116.28296 | 19297 ft | 386 kts | 208° |
| 2026-05-05 19:52 | 33.25752 | -116.29673 | 18823 ft | 381 kts | 209° |
| 2026-05-05 19:53 | 33.23371 | -116.31080 | 18349 ft | 381 kts | 210° |
| 2026-05-05 19:53 | 33.21019 | -116.32473 | 17845 ft | 377 kts | 210° |
| 2026-05-05 19:53 | 33.18659 | -116.33852 | 17375 ft | 375 kts | 209° |
| 2026-05-05 19:53 | 33.16329 | -116.35205 | 16917 ft | 373 kts | 209° |
| 2026-05-05 19:54 | 33.13998 | -116.36569 | 16456 ft | 371 kts | 210° |
| 2026-05-05 19:54 | 33.11692 | -116.37920 | 15992 ft | 370 kts | 209° |
| 2026-05-05 19:54 | 33.09386 | -116.39268 | 15517 ft | 365 kts | 210° |
| 2026-05-05 19:54 | 33.07180 | -116.40548 | 15035 ft | 340 kts | 208° |
| 2026-05-05 19:55 | 33.05098 | -116.41761 | 14620 ft | 328 kts | 210° |
| 2026-05-05 19:55 | 33.03063 | -116.42954 | 14217 ft | 324 kts | 210° |
| 2026-05-05 19:55 | 33.01064 | -116.44133 | 13829 ft | 324 kts | 210° |
| 2026-05-05 19:55 | 32.99246 | -116.45708 | 13405 ft | 316 kts | 224° |
| 2026-05-05 19:56 | 32.97580 | -116.47438 | 13025 ft | 319 kts | 224° |
| 2026-05-05 19:56 | 32.95896 | -116.49141 | 12637 ft | 316 kts | 223° |
| 2026-05-05 19:56 | 32.94219 | -116.50811 | 12265 ft | 315 kts | 222° |
| 2026-05-05 19:56 | 32.92568 | -116.52474 | 11881 ft | 314 kts | 223° |
| 2026-05-05 19:57 | 32.90893 | -116.54171 | 11491 ft | 311 kts | 223° |
| 2026-05-05 19:57 | 32.89800 | -116.55276 | 11243 ft | 312 kts | 223° |
| 2026-05-05 19:57 | 32.87614 | -116.57473 | 10728 ft | 308 kts | 223° |
| 2026-05-05 19:57 | 32.85979 | -116.59118 | 10366 ft | 307 kts | 223° |
| 2026-05-05 19:58 | 32.84390 | -116.60716 | 9989 ft | 291 kts | 223° |
| 2026-05-05 19:58 | 32.82874 | -116.62242 | 9616 ft | 281 kts | 224° |
| 2026-05-05 19:58 | 32.81396 | -116.63734 | 9278 ft | 277 kts | 223° |
| 2026-05-05 19:58 | 32.79911 | -116.65230 | 8936 ft | 276 kts | 223° |
| 2026-05-05 19:59 | 32.78451 | -116.66699 | 8604 ft | 275 kts | 223° |
| 2026-05-05 19:59 | 32.77151 | -116.68279 | 8215 ft | 269 kts | 238° |
| 2026-05-05 19:59 | 32.76254 | -116.70196 | 7929 ft | 264 kts | 244° |
| 2026-05-05 19:59 | 32.75360 | -116.72109 | 7614 ft | 265 kts | 243° |
| 2026-05-05 20:00 | 32.74447 | -116.74008 | 7293 ft | 266 kts | 242° |
| 2026-05-05 20:00 | 32.73543 | -116.75906 | 6982 ft | 263 kts | 243° |
| 2026-05-05 20:00 | 32.72655 | -116.77785 | 6648 ft | 258 kts | 243° |
| 2026-05-05 20:00 | 32.71771 | -116.79654 | 6320 ft | 260 kts | 243° |
| 2026-05-05 20:01 | 32.70886 | -116.81526 | 5998 ft | 259 kts | 243° |
| 2026-05-05 20:01 | 32.70224 | -116.83452 | 5732 ft | 243 kts | 252° |
| 2026-05-05 20:01 | 32.69671 | -116.85284 | 5418 ft | 230 kts | 252° |
| 2026-05-05 20:01 | 32.69142 | -116.87033 | 5097 ft | 221 kts | 251° |
| 2026-05-05 20:02 | 32.68803 | -116.88182 | 4891 ft | 217 kts | 252° |
| 2026-05-05 20:02 | 32.68161 | -116.90380 | 4503 ft | 209 kts | 252° |
| 2026-05-05 20:02 | 32.67844 | -116.91476 | 4305 ft | 206 kts | 252° |
| 2026-05-05 20:02 | 32.67432 | -116.93076 | 3985 ft | 201 kts | 263° |
| 2026-05-05 20:03 | 32.67531 | -116.94683 | 3813 ft | 189 kts | 281° |
| 2026-05-05 20:03 | 32.67847 | -116.96148 | 3683 ft | 179 kts | 284° |
| 2026-05-05 20:03 | 32.68180 | -116.97536 | 3583 ft | 169 kts | 285° |
| 2026-05-05 20:03 | 32.68489 | -116.98810 | 3500 ft | 161 kts | 285° |
| 2026-05-05 20:04 | 32.68781 | -117.00016 | 3284 ft | 146 kts | 285° |
| 2026-05-05 20:04 | 32.69068 | -117.01205 | 3101 ft | 147 kts | 285° |
| 2026-05-05 20:04 | 32.69357 | -117.02398 | 2917 ft | 153 kts | 285° |
| 2026-05-05 20:04 | 32.69648 | -117.03596 | 2726 ft | 144 kts | 285° |
| 2026-05-05 20:05 | 32.69906 | -117.04665 | 2532 ft | 130 kts | 286° |
| 2026-05-05 20:05 | 32.70151 | -117.05681 | 2361 ft | 125 kts | 285° |
| 2026-05-05 20:05 | 32.70386 | -117.06658 | 2196 ft | 121 kts | 284° |
| 2026-05-05 20:05 | 32.70613 | -117.07596 | 2038 ft | 119 kts | 285° |
| 2026-05-05 20:06 | 32.70858 | -117.08527 | 1872 ft | 114 kts | 287° |
| 2026-05-05 20:06 | 32.71081 | -117.09422 | 1663 ft | 112 kts | 285° |
| 2026-05-05 20:06 | 32.71291 | -117.10290 | 1459 ft | 110 kts | 285° |
| 2026-05-05 20:06 | 32.71504 | -117.11175 | 1264 ft | 114 kts | 285° |
| 2026-05-05 20:07 | 32.71692 | -117.12091 | 1057 ft | 115 kts | 284° |
| 2026-05-05 20:07 | 32.71885 | -117.13001 | 848 ft | 111 kts | 285° |
| 2026-05-05 20:07 | 32.72099 | -117.13852 | 799 ft | 105 kts | 287° |
| 2026-05-05 20:07 | 32.72324 | -117.14691 | 686 ft | 109 kts | 285° |
| 2026-05-05 20:08 | 32.72535 | -117.15584 | 539 ft | 114 kts | 284° |
| 2026-05-05 20:08 | 32.72773 | -117.16487 | 384 ft | 113 kts | 282° |
| 2026-05-05 20:08 | 32.72964 | -117.17371 | 181 ft | 110 kts | 283° |
| 2026-05-05 20:08 | 32.73178 | -117.18221 | 44 ft | 103 kts | 282° |
| 2026-05-05 20:09 | 32.73350 | -117.18962 | 25 ft | 78 kts | 286° |
| 2026-05-05 20:09 | 32.73454 | -117.19388 | 22 ft | 35 kts | 269° |
| 2026-05-05 20:09 | 32.73412 | -117.19486 | 25 ft | 0 kts | 199° |
| 2026-05-05 20:10 | 32.73408 | -117.19487 | 25 ft | 0 kts | 192° |
| 2026-05-05 20:10 | 32.73403 | -117.19488 | 24 ft | 2 kts | 184° |
| 2026-05-05 20:10 | 32.73376 | -117.19470 | 24 ft | 6 kts | 129° |
| 2026-05-05 20:10 | 32.73354 | -117.19385 | 22 ft | 15 kts | 107° |
| 2026-05-05 20:11 | 32.73323 | -117.19252 | 20 ft | 17 kts | 104° |
| 2026-05-05 20:11 | 32.73327 | -117.19169 | 21 ft | 12 kts | 43° |
| 2026-05-05 20:11 | 32.73427 | -117.19101 | 21 ft | 20 kts | 30° |
| 2026-05-05 20:11 | 32.73480 | -117.19006 | 18 ft | 13 kts | 98° |
| 2026-05-05 20:12 | 32.73461 | -117.18928 | 19 ft | 7 kts | 107° |
| 2026-05-05 20:12 | 32.73442 | -117.18852 | 23 ft | 14 kts | 104° |
| 2026-05-05 20:12 | 32.73413 | -117.18718 | 19 ft | 18 kts | 105° |
| 2026-05-05 20:12 | 32.73374 | -117.18573 | 25 ft | 16 kts | 107° |
| 2026-05-05 20:13 | 32.73342 | -117.18430 | 25 ft | 21 kts | 106° |
| 2026-05-05 20:13 | 32.73296 | -117.18251 | 23 ft | 19 kts | 108° |
| 2026-05-05 20:13 | 32.73259 | -117.18094 | 25 ft | 16 kts | 108° |
| 2026-05-05 20:13 | 32.73266 | -117.17983 | 24 ft | 13 kts | 31° |
| 2026-05-05 20:14 | 32.73345 | -117.17952 | 25 ft | 10 kts | 21° |
| 2026-05-05 20:14 | 32.73386 | -117.17928 | 27 ft | 2 kts | 92° |
| 2026-05-05 20:14 | 32.73366 | -117.17907 | 26 ft | 7 kts | 167° |
| 2026-05-05 20:14 | 32.73348 | -117.17909 | 26 ft | 0 kts | 187° |